sensor_id;sensor_type;location;lat;lon;timestamp;P1;durP1;ratioP1;P2;durP2;ratioP2
6671;SDS011;3372;48.690;12.362;2023-01-10T00:00:21;3.97;;;2.77;;
6671;SDS011;3372;48.690;12.362;2023-01-10T00:02:47;2.70;;;2.27;;
6671;SDS011;3372;48.690;12.362;2023-01-10T00:05:13;4.00;;;3.40;;
6671;SDS011;3372;48.690;12.362;2023-01-10T00:07:39;3.30;;;2.73;;
6671;SDS011;3372;48.690;12.362;2023-01-10T00:10:05;3.73;;;2.70;;
6671;SDS011;3372;48.690;12.362;2023-01-10T00:12:31;3.73;;;2.10;;
6671;SDS011;3372;48.690;12.362;2023-01-10T00:15:15;3.80;;;2.73;;
6671;SDS011;3372;48.690;12.362;2023-01-10T00:17:41;5.50;;;2.57;;
6671;SDS011;3372;48.690;12.362;2023-01-10T00:20:08;3.17;;;2.73;;
6671;SDS011;3372;48.690;12.362;2023-01-10T00:22:34;3.53;;;2.50;;
6671;SDS011;3372;48.690;12.362;2023-01-10T00:25:00;3.50;;;2.20;;
6671;SDS011;3372;48.690;12.362;2023-01-10T00:27:25;3.97;;;2.80;;
6671;SDS011;3372;48.690;12.362;2023-01-10T00:29:51;3.60;;;2.53;;
6671;SDS011;3372;48.690;12.362;2023-01-10T00:32:17;3.23;;;2.43;;
6671;SDS011;3372;48.690;12.362;2023-01-10T00:34:43;3.37;;;2.47;;
6671;SDS011;3372;48.690;12.362;2023-01-10T00:37:09;2.70;;;2.37;;
6671;SDS011;3372;48.690;12.362;2023-01-10T00:39:34;4.37;;;2.63;;
6671;SDS011;3372;48.690;12.362;2023-01-10T00:42:00;3.13;;;2.73;;
6671;SDS011;3372;48.690;12.362;2023-01-10T00:44:44;3.43;;;2.27;;
6671;SDS011;3372;48.690;12.362;2023-01-10T00:47:11;3.30;;;2.70;;
6671;SDS011;3372;48.690;12.362;2023-01-10T00:49:39;7.37;;;2.90;;
6671;SDS011;3372;48.690;12.362;2023-01-10T00:52:05;4.10;;;2.50;;
6671;SDS011;3372;48.690;12.362;2023-01-10T00:54:31;4.00;;;3.60;;
6671;SDS011;3372;48.690;12.362;2023-01-10T00:56:57;5.33;;;2.57;;
6671;SDS011;3372;48.690;12.362;2023-01-10T00:59:22;3.73;;;2.80;;
6671;SDS011;3372;48.690;12.362;2023-01-10T01:01:49;3.37;;;2.53;;
6671;SDS011;3372;48.690;12.362;2023-01-10T01:04:15;4.73;;;4.20;;
6671;SDS011;3372;48.690;12.362;2023-01-10T01:06:44;9.03;;;7.50;;
6671;SDS011;3372;48.690;12.362;2023-01-10T01:09:11;3.50;;;2.80;;
6671;SDS011;3372;48.690;12.362;2023-01-10T01:11:38;3.50;;;3.20;;
6671;SDS011;3372;48.690;12.362;2023-01-10T01:14:03;3.23;;;2.70;;
6671;SDS011;3372;48.690;12.362;2023-01-10T01:16:29;4.83;;;2.90;;
6671;SDS011;3372;48.690;12.362;2023-01-10T01:18:54;3.83;;;2.90;;
6671;SDS011;3372;48.690;12.362;2023-01-10T01:21:20;4.87;;;3.23;;
6671;SDS011;3372;48.690;12.362;2023-01-10T01:23:46;7.50;;;5.00;;
6671;SDS011;3372;48.690;12.362;2023-01-10T01:26:11;3.83;;;3.07;;
6671;SDS011;3372;48.690;12.362;2023-01-10T01:28:37;3.20;;;2.90;;
6671;SDS011;3372;48.690;12.362;2023-01-10T01:31:09;5.10;;;3.93;;
6671;SDS011;3372;48.690;12.362;2023-01-10T01:33:34;6.47;;;5.27;;
6671;SDS011;3372;48.690;12.362;2023-01-10T01:36:00;6.67;;;2.80;;
6671;SDS011;3372;48.690;12.362;2023-01-10T01:38:26;4.13;;;2.93;;
6671;SDS011;3372;48.690;12.362;2023-01-10T01:40:52;2.73;;;2.43;;
6671;SDS011;3372;48.690;12.362;2023-01-10T01:43:22;3.20;;;2.90;;
6671;SDS011;3372;48.690;12.362;2023-01-10T01:45:47;3.50;;;2.70;;
6671;SDS011;3372;48.690;12.362;2023-01-10T01:50:52;3.23;;;2.93;;
6671;SDS011;3372;48.690;12.362;2023-01-10T01:53:42;3.00;;;2.70;;
6671;SDS011;3372;48.690;12.362;2023-01-10T01:56:18;3.20;;;2.53;;
6671;SDS011;3372;48.690;12.362;2023-01-10T01:59:13;3.80;;;3.20;;
6671;SDS011;3372;48.690;12.362;2023-01-10T02:01:44;3.40;;;2.87;;
6671;SDS011;3372;48.690;12.362;2023-01-10T02:04:14;3.33;;;2.97;;
6671;SDS011;3372;48.690;12.362;2023-01-10T02:06:45;5.70;;;2.53;;
6671;SDS011;3372;48.690;12.362;2023-01-10T02:11:51;3.60;;;3.07;;
6671;SDS011;3372;48.690;12.362;2023-01-10T02:14:18;4.20;;;2.67;;
6671;SDS011;3372;48.690;12.362;2023-01-10T02:16:45;3.70;;;2.90;;
6671;SDS011;3372;48.690;12.362;2023-01-10T02:19:16;3.63;;;2.70;;
6671;SDS011;3372;48.690;12.362;2023-01-10T02:22:11;3.87;;;3.00;;
6671;SDS011;3372;48.690;12.362;2023-01-10T02:28:09;3.93;;;2.80;;
6671;SDS011;3372;48.690;12.362;2023-01-10T02:44:03;3.67;;;2.93;;
6671;SDS011;3372;48.690;12.362;2023-01-10T02:46:47;3.20;;;2.63;;
6671;SDS011;3372;48.690;12.362;2023-01-10T02:49:13;3.47;;;3.10;;
6671;SDS011;3372;48.690;12.362;2023-01-10T02:51:39;4.80;;;4.30;;
6671;SDS011;3372;48.690;12.362;2023-01-10T02:54:09;4.10;;;3.70;;
6671;SDS011;3372;48.690;12.362;2023-01-10T02:59:41;3.17;;;2.87;;
6671;SDS011;3372;48.690;12.362;2023-01-10T03:07:33;3.40;;;3.10;;
6671;SDS011;3372;48.690;12.362;2023-01-10T03:10:15;3.17;;;2.70;;
6671;SDS011;3372;48.690;12.362;2023-01-10T03:12:46;4.10;;;3.27;;
6671;SDS011;3372;48.690;12.362;2023-01-10T03:15:21;3.73;;;3.00;;
6671;SDS011;3372;48.690;12.362;2023-01-10T03:17:50;3.50;;;2.97;;
6671;SDS011;3372;48.690;12.362;2023-01-10T03:20:21;3.30;;;2.90;;
6671;SDS011;3372;48.690;12.362;2023-01-10T03:22:48;3.67;;;2.97;;
6671;SDS011;3372;48.690;12.362;2023-01-10T03:25:18;3.23;;;2.83;;
6671;SDS011;3372;48.690;12.362;2023-01-10T03:27:59;4.00;;;2.83;;
6671;SDS011;3372;48.690;12.362;2023-01-10T03:31:07;3.40;;;2.70;;
6671;SDS011;3372;48.690;12.362;2023-01-10T03:33:33;3.17;;;2.77;;
6671;SDS011;3372;48.690;12.362;2023-01-10T03:38:51;3.90;;;2.70;;
6671;SDS011;3372;48.690;12.362;2023-01-10T03:49:49;4.80;;;3.37;;
6671;SDS011;3372;48.690;12.362;2023-01-10T03:52:20;4.00;;;3.20;;
6671;SDS011;3372;48.690;12.362;2023-01-10T03:54:47;5.20;;;3.87;;
6671;SDS011;3372;48.690;12.362;2023-01-10T03:57:14;4.70;;;4.20;;
6671;SDS011;3372;48.690;12.362;2023-01-10T03:59:45;6.43;;;4.47;;
6671;SDS011;3372;48.690;12.362;2023-01-10T04:02:12;5.77;;;4.70;;
6671;SDS011;3372;48.690;12.362;2023-01-10T04:04:38;7.27;;;6.57;;
6671;SDS011;3372;48.690;12.362;2023-01-10T04:07:03;9.77;;;6.80;;
6671;SDS011;3372;48.690;12.362;2023-01-10T04:09:29;8.30;;;7.03;;
6671;SDS011;3372;48.690;12.362;2023-01-10T04:11:54;7.00;;;5.40;;
6671;SDS011;3372;48.690;12.362;2023-01-10T04:14:20;5.73;;;4.80;;
6671;SDS011;3372;48.690;12.362;2023-01-10T04:16:46;25.23;;;21.30;;
6671;SDS011;3372;48.690;12.362;2023-01-10T04:19:11;9.90;;;7.50;;
6671;SDS011;3372;48.690;12.362;2023-01-10T04:21:37;6.97;;;6.03;;
6671;SDS011;3372;48.690;12.362;2023-01-10T04:24:02;5.07;;;4.10;;
6671;SDS011;3372;48.690;12.362;2023-01-10T04:26:28;4.80;;;3.80;;
6671;SDS011;3372;48.690;12.362;2023-01-10T04:28:53;4.87;;;3.90;;
6671;SDS011;3372;48.690;12.362;2023-01-10T04:31:19;4.43;;;4.03;;
6671;SDS011;3372;48.690;12.362;2023-01-10T04:33:46;5.53;;;4.00;;
6671;SDS011;3372;48.690;12.362;2023-01-10T04:36:11;4.67;;;4.00;;
6671;SDS011;3372;48.690;12.362;2023-01-10T04:38:37;4.10;;;3.50;;
6671;SDS011;3372;48.690;12.362;2023-01-10T04:41:02;4.20;;;3.70;;
6671;SDS011;3372;48.690;12.362;2023-01-10T04:43:34;4.80;;;3.97;;
6671;SDS011;3372;48.690;12.362;2023-01-10T04:45:59;6.90;;;3.90;;
6671;SDS011;3372;48.690;12.362;2023-01-10T04:48:25;5.27;;;3.53;;
6671;SDS011;3372;48.690;12.362;2023-01-10T04:50:51;5.47;;;4.20;;
6671;SDS011;3372;48.690;12.362;2023-01-10T04:53:18;4.53;;;3.87;;
6671;SDS011;3372;48.690;12.362;2023-01-10T04:55:43;5.33;;;4.17;;
6671;SDS011;3372;48.690;12.362;2023-01-10T04:58:09;6.27;;;4.57;;
6671;SDS011;3372;48.690;12.362;2023-01-10T05:00:35;5.80;;;4.63;;
6671;SDS011;3372;48.690;12.362;2023-01-10T05:03:00;6.17;;;4.87;;
6671;SDS011;3372;48.690;12.362;2023-01-10T05:05:26;5.30;;;4.53;;
6671;SDS011;3372;48.690;12.362;2023-01-10T05:07:52;6.27;;;5.27;;
6671;SDS011;3372;48.690;12.362;2023-01-10T05:10:18;6.60;;;5.43;;
6671;SDS011;3372;48.690;12.362;2023-01-10T05:12:44;7.80;;;6.30;;
6671;SDS011;3372;48.690;12.362;2023-01-10T05:15:10;6.20;;;5.40;;
6671;SDS011;3372;48.690;12.362;2023-01-10T05:17:36;8.57;;;6.17;;
6671;SDS011;3372;48.690;12.362;2023-01-10T05:20:02;8.30;;;7.13;;
6671;SDS011;3372;48.690;12.362;2023-01-10T05:22:28;6.13;;;5.53;;
6671;SDS011;3372;48.690;12.362;2023-01-10T05:24:53;6.80;;;5.00;;
6671;SDS011;3372;48.690;12.362;2023-01-10T05:27:19;7.07;;;5.07;;
6671;SDS011;3372;48.690;12.362;2023-01-10T05:29:44;5.90;;;5.13;;
6671;SDS011;3372;48.690;12.362;2023-01-10T05:32:10;10.07;;;8.50;;
6671;SDS011;3372;48.690;12.362;2023-01-10T05:34:35;8.60;;;6.90;;
6671;SDS011;3372;48.690;12.362;2023-01-10T05:37:01;7.50;;;5.70;;
6671;SDS011;3372;48.690;12.362;2023-01-10T05:39:27;9.93;;;5.43;;
6671;SDS011;3372;48.690;12.362;2023-01-10T05:41:52;6.27;;;5.03;;
6671;SDS011;3372;48.690;12.362;2023-01-10T05:44:18;8.93;;;5.30;;
6671;SDS011;3372;48.690;12.362;2023-01-10T05:46:43;8.57;;;6.30;;
6671;SDS011;3372;48.690;12.362;2023-01-10T05:49:09;7.83;;;5.50;;
6671;SDS011;3372;48.690;12.362;2023-01-10T05:51:35;5.33;;;4.77;;
6671;SDS011;3372;48.690;12.362;2023-01-10T05:54:00;6.77;;;5.10;;
6671;SDS011;3372;48.690;12.362;2023-01-10T05:56:26;7.20;;;5.37;;
6671;SDS011;3372;48.690;12.362;2023-01-10T05:58:53;6.40;;;5.40;;
6671;SDS011;3372;48.690;12.362;2023-01-10T06:01:18;6.87;;;4.63;;
6671;SDS011;3372;48.690;12.362;2023-01-10T06:03:44;8.17;;;5.37;;
6671;SDS011;3372;48.690;12.362;2023-01-10T06:06:09;7.27;;;5.00;;
6671;SDS011;3372;48.690;12.362;2023-01-10T06:08:35;5.50;;;4.87;;
6671;SDS011;3372;48.690;12.362;2023-01-10T06:11:04;5.77;;;5.00;;
6671;SDS011;3372;48.690;12.362;2023-01-10T06:13:30;7.13;;;5.40;;
6671;SDS011;3372;48.690;12.362;2023-01-10T06:15:55;7.20;;;5.63;;
6671;SDS011;3372;48.690;12.362;2023-01-10T06:18:21;7.20;;;5.60;;
6671;SDS011;3372;48.690;12.362;2023-01-10T06:20:47;6.40;;;5.27;;
6671;SDS011;3372;48.690;12.362;2023-01-10T06:23:12;6.90;;;5.50;;
6671;SDS011;3372;48.690;12.362;2023-01-10T06:25:38;9.07;;;6.43;;
6671;SDS011;3372;48.690;12.362;2023-01-10T06:28:10;8.50;;;5.67;;
6671;SDS011;3372;48.690;12.362;2023-01-10T06:30:37;7.67;;;6.07;;
6671;SDS011;3372;48.690;12.362;2023-01-10T06:33:06;8.37;;;6.30;;
6671;SDS011;3372;48.690;12.362;2023-01-10T06:35:32;11.17;;;8.90;;
6671;SDS011;3372;48.690;12.362;2023-01-10T06:37:59;8.57;;;6.67;;
6671;SDS011;3372;48.690;12.362;2023-01-10T06:40:24;8.83;;;7.10;;
6671;SDS011;3372;48.690;12.362;2023-01-10T06:42:51;8.30;;;6.37;;
6671;SDS011;3372;48.690;12.362;2023-01-10T06:45:16;8.67;;;6.53;;
6671;SDS011;3372;48.690;12.362;2023-01-10T06:47:42;8.57;;;6.73;;
6671;SDS011;3372;48.690;12.362;2023-01-10T06:50:08;12.43;;;10.33;;
6671;SDS011;3372;48.690;12.362;2023-01-10T06:52:34;9.60;;;7.43;;
6671;SDS011;3372;48.690;12.362;2023-01-10T06:54:59;8.70;;;7.77;;
6671;SDS011;3372;48.690;12.362;2023-01-10T06:57:25;7.50;;;6.70;;
6671;SDS011;3372;48.690;12.362;2023-01-10T06:59:52;7.00;;;5.27;;
6671;SDS011;3372;48.690;12.362;2023-01-10T07:02:18;7.43;;;6.43;;
6671;SDS011;3372;48.690;12.362;2023-01-10T07:04:43;7.40;;;5.77;;
6671;SDS011;3372;48.690;12.362;2023-01-10T07:07:09;7.57;;;5.47;;
6671;SDS011;3372;48.690;12.362;2023-01-10T07:09:35;6.43;;;5.50;;
6671;SDS011;3372;48.690;12.362;2023-01-10T07:12:00;6.63;;;5.90;;
6671;SDS011;3372;48.690;12.362;2023-01-10T07:14:26;6.73;;;6.03;;
6671;SDS011;3372;48.690;12.362;2023-01-10T07:16:51;6.40;;;5.47;;
6671;SDS011;3372;48.690;12.362;2023-01-10T07:19:17;6.40;;;5.80;;
6671;SDS011;3372;48.690;12.362;2023-01-10T07:21:43;7.83;;;6.47;;
6671;SDS011;3372;48.690;12.362;2023-01-10T07:24:09;7.60;;;6.10;;
6671;SDS011;3372;48.690;12.362;2023-01-10T07:26:35;8.00;;;6.80;;
6671;SDS011;3372;48.690;12.362;2023-01-10T07:29:00;10.77;;;8.13;;
6671;SDS011;3372;48.690;12.362;2023-01-10T07:31:26;11.07;;;8.40;;
6671;SDS011;3372;48.690;12.362;2023-01-10T07:33:52;8.10;;;7.27;;
6671;SDS011;3372;48.690;12.362;2023-01-10T07:36:18;8.47;;;7.43;;
6671;SDS011;3372;48.690;12.362;2023-01-10T07:38:43;11.80;;;10.23;;
6671;SDS011;3372;48.690;12.362;2023-01-10T07:41:09;11.93;;;8.77;;
6671;SDS011;3372;48.690;12.362;2023-01-10T07:43:35;10.40;;;8.40;;
6671;SDS011;3372;48.690;12.362;2023-01-10T07:46:01;8.47;;;7.57;;
6671;SDS011;3372;48.690;12.362;2023-01-10T07:48:29;9.90;;;8.00;;
6671;SDS011;3372;48.690;12.362;2023-01-10T07:50:55;10.93;;;8.60;;
6671;SDS011;3372;48.690;12.362;2023-01-10T07:53:22;10.70;;;8.10;;
6671;SDS011;3372;48.690;12.362;2023-01-10T07:55:48;10.97;;;8.77;;
6671;SDS011;3372;48.690;12.362;2023-01-10T07:58:14;13.37;;;10.50;;
6671;SDS011;3372;48.690;12.362;2023-01-10T08:00:40;16.40;;;13.20;;
6671;SDS011;3372;48.690;12.362;2023-01-10T08:03:05;9.10;;;7.10;;
6671;SDS011;3372;48.690;12.362;2023-01-10T08:05:31;11.63;;;9.30;;
6671;SDS011;3372;48.690;12.362;2023-01-10T08:08:02;11.23;;;8.10;;
6671;SDS011;3372;48.690;12.362;2023-01-10T08:10:29;10.67;;;8.30;;
6671;SDS011;3372;48.690;12.362;2023-01-10T08:12:54;12.07;;;9.73;;
6671;SDS011;3372;48.690;12.362;2023-01-10T08:15:20;10.93;;;7.43;;
6671;SDS011;3372;48.690;12.362;2023-01-10T08:17:46;10.30;;;7.77;;
6671;SDS011;3372;48.690;12.362;2023-01-10T08:20:12;11.53;;;8.53;;
6671;SDS011;3372;48.690;12.362;2023-01-10T08:22:37;11.13;;;7.77;;
6671;SDS011;3372;48.690;12.362;2023-01-10T08:25:03;14.17;;;9.10;;
6671;SDS011;3372;48.690;12.362;2023-01-10T08:27:29;13.83;;;9.20;;
6671;SDS011;3372;48.690;12.362;2023-01-10T08:29:54;14.17;;;8.47;;
6671;SDS011;3372;48.690;12.362;2023-01-10T08:32:20;12.10;;;8.10;;
6671;SDS011;3372;48.690;12.362;2023-01-10T08:34:46;10.83;;;7.70;;
6671;SDS011;3372;48.690;12.362;2023-01-10T08:37:12;12.53;;;8.83;;
6671;SDS011;3372;48.690;12.362;2023-01-10T08:39:38;11.60;;;8.20;;
6671;SDS011;3372;48.690;12.362;2023-01-10T08:42:04;14.30;;;8.27;;
6671;SDS011;3372;48.690;12.362;2023-01-10T08:44:39;12.77;;;8.93;;
6671;SDS011;3372;48.690;12.362;2023-01-10T08:47:06;16.80;;;8.93;;
6671;SDS011;3372;48.690;12.362;2023-01-10T08:49:31;11.90;;;7.93;;
6671;SDS011;3372;48.690;12.362;2023-01-10T08:51:57;13.17;;;8.20;;
6671;SDS011;3372;48.690;12.362;2023-01-10T08:54:23;13.37;;;8.17;;
6671;SDS011;3372;48.690;12.362;2023-01-10T08:56:48;14.20;;;8.53;;
6671;SDS011;3372;48.690;12.362;2023-01-10T08:59:14;21.43;;;12.70;;
6671;SDS011;3372;48.690;12.362;2023-01-10T09:01:40;16.03;;;10.50;;
6671;SDS011;3372;48.690;12.362;2023-01-10T09:04:06;12.27;;;7.90;;
6671;SDS011;3372;48.690;12.362;2023-01-10T09:06:31;12.90;;;8.93;;
6671;SDS011;3372;48.690;12.362;2023-01-10T09:08:57;13.60;;;8.53;;
6671;SDS011;3372;48.690;12.362;2023-01-10T09:11:22;16.00;;;10.67;;
6671;SDS011;3372;48.690;12.362;2023-01-10T09:13:48;14.10;;;8.00;;
6671;SDS011;3372;48.690;12.362;2023-01-10T09:16:14;13.40;;;9.07;;
6671;SDS011;3372;48.690;12.362;2023-01-10T09:18:40;19.40;;;10.63;;
6671;SDS011;3372;48.690;12.362;2023-01-10T09:21:06;11.87;;;6.53;;
6671;SDS011;3372;48.690;12.362;2023-01-10T09:23:32;15.90;;;8.93;;
6671;SDS011;3372;48.690;12.362;2023-01-10T09:25:58;17.50;;;8.97;;
6671;SDS011;3372;48.690;12.362;2023-01-10T09:28:25;15.97;;;9.60;;
6671;SDS011;3372;48.690;12.362;2023-01-10T09:30:51;18.43;;;10.30;;
6671;SDS011;3372;48.690;12.362;2023-01-10T09:33:17;17.10;;;10.67;;
6671;SDS011;3372;48.690;12.362;2023-01-10T09:35:43;14.60;;;10.70;;
6671;SDS011;3372;48.690;12.362;2023-01-10T09:38:10;13.00;;;8.03;;
6671;SDS011;3372;48.690;12.362;2023-01-10T09:52:17;24.80;;;12.13;;
6671;SDS011;3372;48.690;12.362;2023-01-10T09:54:51;16.50;;;9.90;;
6671;SDS011;3372;48.690;12.362;2023-01-10T09:57:20;15.80;;;8.50;;
6671;SDS011;3372;48.690;12.362;2023-01-10T09:59:47;14.27;;;9.77;;
6671;SDS011;3372;48.690;12.362;2023-01-10T10:07:45;6.97;;;5.40;;
6671;SDS011;3372;48.690;12.362;2023-01-10T10:10:29;23.60;;;12.80;;
6671;SDS011;3372;48.690;12.362;2023-01-10T10:16:03;10.50;;;7.10;;
6671;SDS011;3372;48.690;12.362;2023-01-10T10:21:44;11.93;;;7.90;;
6671;SDS011;3372;48.690;12.362;2023-01-10T10:29:53;9.60;;;5.63;;
6671;SDS011;3372;48.690;12.362;2023-01-10T10:35:32;7.40;;;4.73;;
6671;SDS011;3372;48.690;12.362;2023-01-10T10:38:18;6.33;;;5.13;;
6671;SDS011;3372;48.690;12.362;2023-01-10T10:40:48;9.80;;;6.00;;
6671;SDS011;3372;48.690;12.362;2023-01-10T10:43:19;10.97;;;6.93;;
6671;SDS011;3372;48.690;12.362;2023-01-10T10:46:04;7.83;;;5.20;;
6671;SDS011;3372;48.690;12.362;2023-01-10T10:48:48;11.70;;;6.27;;
6671;SDS011;3372;48.690;12.362;2023-01-10T10:51:22;18.90;;;10.50;;
6671;SDS011;3372;48.690;12.362;2023-01-10T10:53:58;23.67;;;12.40;;
6671;SDS011;3372;48.690;12.362;2023-01-10T10:56:25;6.27;;;4.43;;
6671;SDS011;3372;48.690;12.362;2023-01-10T10:58:51;16.63;;;12.83;;
6671;SDS011;3372;48.690;12.362;2023-01-10T11:01:20;8.87;;;5.70;;
6671;SDS011;3372;48.690;12.362;2023-01-10T11:03:51;8.43;;;4.73;;
6671;SDS011;3372;48.690;12.362;2023-01-10T11:06:35;9.53;;;4.73;;
6671;SDS011;3372;48.690;12.362;2023-01-10T11:09:05;9.77;;;7.40;;
6671;SDS011;3372;48.690;12.362;2023-01-10T11:11:32;6.57;;;4.70;;
6671;SDS011;3372;48.690;12.362;2023-01-10T11:14:08;6.70;;;4.57;;
6671;SDS011;3372;48.690;12.362;2023-01-10T11:16:37;8.83;;;7.13;;
6671;SDS011;3372;48.690;12.362;2023-01-10T11:21:49;6.33;;;5.20;;
6671;SDS011;3372;48.690;12.362;2023-01-10T11:27:00;17.80;;;9.57;;
6671;SDS011;3372;48.690;12.362;2023-01-10T11:32:07;11.00;;;6.50;;
6671;SDS011;3372;48.690;12.362;2023-01-10T11:34:38;10.87;;;6.30;;
6671;SDS011;3372;48.690;12.362;2023-01-10T11:40:06;6.47;;;4.27;;
6671;SDS011;3372;48.690;12.362;2023-01-10T11:42:43;14.33;;;4.87;;
6671;SDS011;3372;48.690;12.362;2023-01-10T11:47:42;6.90;;;4.50;;
6671;SDS011;3372;48.690;12.362;2023-01-10T11:50:19;11.87;;;4.40;;
6671;SDS011;3372;48.690;12.362;2023-01-10T11:52:47;19.43;;;4.57;;
6671;SDS011;3372;48.690;12.362;2023-01-10T11:55:17;7.20;;;4.40;;
6671;SDS011;3372;48.690;12.362;2023-01-10T11:57:46;9.07;;;5.40;;
6671;SDS011;3372;48.690;12.362;2023-01-10T12:00:38;10.50;;;6.30;;
6671;SDS011;3372;48.690;12.362;2023-01-10T12:03:23;9.10;;;5.77;;
6671;SDS011;3372;48.690;12.362;2023-01-10T12:06:06;10.53;;;4.13;;
6671;SDS011;3372;48.690;12.362;2023-01-10T12:08:42;11.00;;;6.17;;
6671;SDS011;3372;48.690;12.362;2023-01-10T12:13:53;16.80;;;9.40;;
6671;SDS011;3372;48.690;12.362;2023-01-10T12:16:28;12.27;;;7.63;;
6671;SDS011;3372;48.690;12.362;2023-01-10T12:18:59;13.60;;;7.77;;
6671;SDS011;3372;48.690;12.362;2023-01-10T12:21:38;13.00;;;6.93;;
6671;SDS011;3372;48.690;12.362;2023-01-10T12:24:13;18.37;;;12.10;;
6671;SDS011;3372;48.690;12.362;2023-01-10T12:26:46;15.83;;;10.00;;
6671;SDS011;3372;48.690;12.362;2023-01-10T12:29:15;16.40;;;11.53;;
6671;SDS011;3372;48.690;12.362;2023-01-10T12:31:44;20.90;;;16.00;;
6671;SDS011;3372;48.690;12.362;2023-01-10T12:34:16;10.23;;;4.60;;
6671;SDS011;3372;48.690;12.362;2023-01-10T12:36:49;11.73;;;5.60;;
6671;SDS011;3372;48.690;12.362;2023-01-10T12:39:39;16.23;;;11.73;;
6671;SDS011;3372;48.690;12.362;2023-01-10T12:44:59;12.00;;;8.50;;
6671;SDS011;3372;48.690;12.362;2023-01-10T12:50:20;9.50;;;7.20;;
6671;SDS011;3372;48.690;12.362;2023-01-10T12:52:58;9.67;;;3.87;;
6671;SDS011;3372;48.690;12.362;2023-01-10T12:55:39;5.73;;;3.77;;
6671;SDS011;3372;48.690;12.362;2023-01-10T12:58:50;14.80;;;7.70;;
6671;SDS011;3372;48.690;12.362;2023-01-10T13:00:59;9.90;;;7.80;;
6671;SDS011;3372;48.690;12.362;2023-01-10T13:03:29;12.20;;;9.00;;
6671;SDS011;3372;48.690;12.362;2023-01-10T13:05:57;16.80;;;10.37;;
6671;SDS011;3372;48.690;12.362;2023-01-10T13:08:24;6.77;;;4.93;;
6671;SDS011;3372;48.690;12.362;2023-01-10T13:10:54;23.20;;;13.20;;
6671;SDS011;3372;48.690;12.362;2023-01-10T13:13:35;18.90;;;10.70;;
6671;SDS011;3372;48.690;12.362;2023-01-10T13:21:36;15.37;;;10.00;;
6671;SDS011;3372;48.690;12.362;2023-01-10T13:24:15;5.00;;;3.67;;
6671;SDS011;3372;48.690;12.362;2023-01-10T13:26:53;9.47;;;4.93;;
6671;SDS011;3372;48.690;12.362;2023-01-10T13:29:22;7.80;;;3.87;;
6671;SDS011;3372;48.690;12.362;2023-01-10T13:31:57;9.50;;;4.13;;
6671;SDS011;3372;48.690;12.362;2023-01-10T13:34:26;6.60;;;2.93;;
6671;SDS011;3372;48.690;12.362;2023-01-10T13:37:09;6.87;;;3.00;;
6671;SDS011;3372;48.690;12.362;2023-01-10T13:39:40;7.13;;;3.20;;
6671;SDS011;3372;48.690;12.362;2023-01-10T14:00:49;6.67;;;3.50;;
6671;SDS011;3372;48.690;12.362;2023-01-10T14:08:35;5.10;;;2.77;;
6671;SDS011;3372;48.690;12.362;2023-01-10T14:11:11;4.20;;;2.80;;
6671;SDS011;3372;48.690;12.362;2023-01-10T14:13:37;9.20;;;4.83;;
6671;SDS011;3372;48.690;12.362;2023-01-10T14:16:31;7.43;;;4.20;;
6671;SDS011;3372;48.690;12.362;2023-01-10T14:19:00;6.40;;;3.83;;
6671;SDS011;3372;48.690;12.362;2023-01-10T14:21:29;7.87;;;5.20;;
6671;SDS011;3372;48.690;12.362;2023-01-10T14:23:58;7.13;;;4.33;;
6671;SDS011;3372;48.690;12.362;2023-01-10T14:26:34;5.60;;;2.67;;
6671;SDS011;3372;48.690;12.362;2023-01-10T14:29:06;11.10;;;6.43;;
6671;SDS011;3372;48.690;12.362;2023-01-10T14:31:36;8.70;;;5.77;;
6671;SDS011;3372;48.690;12.362;2023-01-10T14:34:03;7.87;;;2.87;;
6671;SDS011;3372;48.690;12.362;2023-01-10T14:36:40;6.37;;;4.23;;
6671;SDS011;3372;48.690;12.362;2023-01-10T14:39:10;7.03;;;2.50;;
6671;SDS011;3372;48.690;12.362;2023-01-10T14:41:41;7.10;;;3.10;;
6671;SDS011;3372;48.690;12.362;2023-01-10T14:44:21;6.43;;;2.50;;
6671;SDS011;3372;48.690;12.362;2023-01-10T14:46:53;3.53;;;1.90;;
6671;SDS011;3372;48.690;12.362;2023-01-10T14:50:05;6.30;;;2.00;;
6671;SDS011;3372;48.690;12.362;2023-01-10T14:52:19;4.47;;;2.07;;
6671;SDS011;3372;48.690;12.362;2023-01-10T14:54:52;3.60;;;1.90;;
6671;SDS011;3372;48.690;12.362;2023-01-10T14:57:22;3.47;;;2.27;;
6671;SDS011;3372;48.690;12.362;2023-01-10T14:59:48;8.70;;;2.23;;
6671;SDS011;3372;48.690;12.362;2023-01-10T15:02:19;3.33;;;2.30;;
6671;SDS011;3372;48.690;12.362;2023-01-10T15:07:33;4.67;;;2.03;;
6671;SDS011;3372;48.690;12.362;2023-01-10T15:10:00;6.90;;;3.60;;
6671;SDS011;3372;48.690;12.362;2023-01-10T15:12:34;3.33;;;2.10;;
6671;SDS011;3372;48.690;12.362;2023-01-10T15:15:05;6.10;;;2.20;;
6671;SDS011;3372;48.690;12.362;2023-01-10T15:17:36;4.03;;;2.07;;
6671;SDS011;3372;48.690;12.362;2023-01-10T15:20:03;4.33;;;2.00;;
6671;SDS011;3372;48.690;12.362;2023-01-10T15:22:31;6.50;;;2.67;;
6671;SDS011;3372;48.690;12.362;2023-01-10T15:25:05;7.23;;;3.50;;
6671;SDS011;3372;48.690;12.362;2023-01-10T15:27:52;4.30;;;2.40;;
6671;SDS011;3372;48.690;12.362;2023-01-10T15:30:19;3.73;;;2.20;;
6671;SDS011;3372;48.690;12.362;2023-01-10T15:32:48;5.00;;;1.87;;
6671;SDS011;3372;48.690;12.362;2023-01-10T15:35:16;6.90;;;2.53;;
6671;SDS011;3372;48.690;12.362;2023-01-10T15:37:44;6.77;;;3.63;;
6671;SDS011;3372;48.690;12.362;2023-01-10T15:40:29;5.10;;;3.90;;
6671;SDS011;3372;48.690;12.362;2023-01-10T15:43:09;6.77;;;2.23;;
6671;SDS011;3372;48.690;12.362;2023-01-10T15:45:42;4.80;;;2.63;;
6671;SDS011;3372;48.690;12.362;2023-01-10T15:48:25;8.30;;;2.87;;
6671;SDS011;3372;48.690;12.362;2023-01-10T15:53:43;5.70;;;2.30;;
6671;SDS011;3372;48.690;12.362;2023-01-10T15:56:15;7.77;;;3.90;;
6671;SDS011;3372;48.690;12.362;2023-01-10T15:58:43;4.87;;;3.20;;
6671;SDS011;3372;48.690;12.362;2023-01-10T16:01:12;11.30;;;4.90;;
6671;SDS011;3372;48.690;12.362;2023-01-10T16:03:47;7.93;;;3.53;;
6671;SDS011;3372;48.690;12.362;2023-01-10T16:08:54;4.23;;;2.80;;
6671;SDS011;3372;48.690;12.362;2023-01-10T16:11:26;6.47;;;2.57;;
6671;SDS011;3372;48.690;12.362;2023-01-10T16:14:22;6.27;;;2.23;;
6671;SDS011;3372;48.690;12.362;2023-01-10T16:16:48;6.60;;;2.80;;
6671;SDS011;3372;48.690;12.362;2023-01-10T16:19:13;5.93;;;2.63;;
6671;SDS011;3372;48.690;12.362;2023-01-10T16:21:40;6.53;;;3.17;;
6671;SDS011;3372;48.690;12.362;2023-01-10T16:24:20;5.57;;;3.50;;
6671;SDS011;3372;48.690;12.362;2023-01-10T16:26:47;5.97;;;3.23;;
6671;SDS011;3372;48.690;12.362;2023-01-10T16:29:13;11.10;;;4.57;;
6671;SDS011;3372;48.690;12.362;2023-01-10T16:31:39;7.60;;;3.73;;
6671;SDS011;3372;48.690;12.362;2023-01-10T16:34:05;8.10;;;3.60;;
6671;SDS011;3372;48.690;12.362;2023-01-10T16:36:32;5.90;;;3.50;;
6671;SDS011;3372;48.690;12.362;2023-01-10T16:39:00;6.37;;;3.90;;
6671;SDS011;3372;48.690;12.362;2023-01-10T16:41:30;31.00;;;22.10;;
6671;SDS011;3372;48.690;12.362;2023-01-10T16:44:14;14.90;;;8.47;;
6671;SDS011;3372;48.690;12.362;2023-01-10T16:46:39;8.93;;;5.60;;
6671;SDS011;3372;48.690;12.362;2023-01-10T16:49:05;9.50;;;5.53;;
6671;SDS011;3372;48.690;12.362;2023-01-10T16:51:32;12.93;;;4.23;;
6671;SDS011;3372;48.690;12.362;2023-01-10T16:53:58;7.30;;;4.20;;
6671;SDS011;3372;48.690;12.362;2023-01-10T16:56:24;8.20;;;4.50;;
6671;SDS011;3372;48.690;12.362;2023-01-10T16:58:52;7.30;;;3.87;;
6671;SDS011;3372;48.690;12.362;2023-01-10T17:01:26;8.83;;;3.30;;
6671;SDS011;3372;48.690;12.362;2023-01-10T17:04:00;6.57;;;3.37;;
6671;SDS011;3372;48.690;12.362;2023-01-10T17:06:25;6.37;;;3.43;;
6671;SDS011;3372;48.690;12.362;2023-01-10T17:08:52;8.73;;;3.97;;
6671;SDS011;3372;48.690;12.362;2023-01-10T17:11:19;6.80;;;3.20;;
6671;SDS011;3372;48.690;12.362;2023-01-10T17:13:49;8.30;;;3.70;;
6671;SDS011;3372;48.690;12.362;2023-01-10T17:16:15;3.50;;;2.80;;
6671;SDS011;3372;48.690;12.362;2023-01-10T17:18:41;3.80;;;2.77;;
6671;SDS011;3372;48.690;12.362;2023-01-10T17:21:07;6.17;;;3.10;;
6671;SDS011;3372;48.690;12.362;2023-01-10T17:23:40;4.37;;;2.90;;